Time;durP1;ratioP1;P1;durP2;ratioP2;P2;SDS_P1;SDS_P2;PMS_P1;PMS_P2;Temp;Humidity;BMP_temperature;BMP_pressure;BME280_temperature;BME280_humidity;BME280_pressure;Samples;Min_cycle;Max_cycle;Signal;HPM_P1;HPM_P2
2023/02/25 00:01:05;;;;;;;9.70;6.00;;;;;;;3.84;100.00;94404.50;4998794;28;20665;-80
2023/02/25 00:03:30;;;;;;;11.07;7.20;;;;;;;3.76;99.34;94403.53;5005816;28;20183;-80
2023/02/25 00:05:56;;;;;;;11.10;6.23;;;;;;;3.77;99.78;94407.72;5009328;28;20198;-80
2023/02/25 00:08:21;;;;;;;7.93;6.20;;;;;;;3.69;99.42;94401.50;5009977;28;20209;-80
2023/02/25 00:10:55;;;;;;;9.03;6.07;;;;;;;3.80;98.48;94410.03;5004625;28;20242;-80
2023/02/25 00:13:20;;;;;;;10.90;6.70;;;;;;;3.72;98.30;94415.84;4999158;28;20601;-80
2023/02/25 00:15:46;;;;;;;8.27;5.53;;;;;;;3.74;98.13;94413.94;4978710;28;20236;-79
2023/02/25 00:18:11;;;;;;;9.00;6.03;;;;;;;3.84;97.60;94421.66;4982422;28;20189;-79
2023/02/25 00:20:39;;;;;;;10.77;6.37;;;;;;;3.85;97.62;94410.44;5002081;28;20277;-81
2023/02/25 00:23:05;;;;;;;8.40;5.87;;;;;;;3.77;97.25;94415.44;5011903;28;20183;-80
2023/02/25 00:25:30;;;;;;;10.43;6.40;;;;;;;3.84;97.52;94406.25;5009431;28;20220;-80
2023/02/25 00:27:56;;;;;;;8.80;5.90;;;;;;;3.82;97.70;94421.00;5004331;28;20295;-80
2023/02/25 00:30:21;;;;;;;8.10;5.93;;;;;;;3.79;97.50;94421.25;4986513;28;20202;-80
2023/02/25 00:32:48;;;;;;;13.33;6.27;;;;;;;3.69;96.80;94422.03;5012967;28;20213;-80
2023/02/25 00:35:14;;;;;;;10.00;5.93;;;;;;;3.67;96.32;94408.53;5002070;28;20358;-80
2023/02/25 00:37:39;;;;;;;13.17;7.37;;;;;;;3.75;95.20;94409.63;4987679;28;20277;-80
2023/02/25 00:40:09;;;;;;;9.93;6.27;;;;;;;3.79;94.60;94416.09;5006030;28;20181;-80
2023/02/25 00:42:34;;;;;;;10.13;6.60;;;;;;;3.81;93.54;94409.09;5016315;28;20578;-80
2023/02/25 00:45:00;;;;;;;12.27;5.60;;;;;;;3.73;94.06;94396.94;5000024;28;20226;-79
2023/02/25 00:47:25;;;;;;;9.47;6.57;;;;;;;3.69;92.88;94406.63;4997340;28;20216;-80
2023/02/25 00:49:51;;;;;;;9.80;5.87;;;;;;;3.62;93.20;94405.56;4996225;28;20190;-80
2023/02/25 00:52:16;;;;;;;8.30;5.87;;;;;;;3.46;91.00;94412.16;5000190;28;20204;-80
2023/02/25 00:54:41;;;;;;;9.17;6.03;;;;;;;3.51;91.04;94404.84;5004546;28;20224;-80
2023/02/25 00:57:07;;;;;;;14.93;6.50;;;;;;;3.53;89.53;94410.66;5011960;28;20326;-80
2023/02/25 00:59:32;;;;;;;10.13;6.20;;;;;;;3.55;89.14;94404.47;5006746;28;20189;-80
2023/02/25 01:01:58;;;;;;;8.07;5.50;;;;;;;3.60;88.06;94411.75;4984466;28;20195;-80
2023/02/25 01:04:23;;;;;;;9.90;5.53;;;;;;;3.67;88.73;94408.53;5000674;28;20221;-80
2023/02/25 01:06:49;;;;;;;8.13;6.30;;;;;;;3.61;89.88;94403.91;5011592;28;20187;-81
2023/02/25 01:09:14;;;;;;;13.33;6.43;;;;;;;3.62;89.79;94408.13;5007221;28;20218;-81
2023/02/25 01:11:43;;;;;;;11.50;6.37;;;;;;;3.58;90.39;94418.78;5005750;28;20233;-81
2023/02/25 01:14:18;;;;;;;11.90;6.30;;;;;;;3.65;90.05;94412.19;5012319;28;20298;-81
2023/02/25 01:16:44;;;;;;;13.33;6.70;;;;;;;3.41;90.66;94418.47;5001584;28;20635;-80
2023/02/25 01:19:15;;;;;;;9.67;6.50;;;;;;;3.62;90.44;94420.13;5002505;28;20183;-81
2023/02/25 01:21:43;;;;;;;10.07;6.47;;;;;;;3.69;90.67;94432.31;5009578;28;20196;-81
2023/02/25 01:24:19;;;;;;;10.70;5.53;;;;;;;3.56;90.38;94448.94;4997724;28;20281;-80
2023/02/25 01:26:46;;;;;;;13.63;6.30;;;;;;;3.65;90.08;94445.56;5000400;28;20210;-81
2023/02/25 01:29:20;;;;;;;11.77;6.87;;;;;;;3.54;90.57;94451.63;4985078;28;20230;-80
2023/02/25 01:31:45;;;;;;;9.37;6.87;;;;;;;3.55;90.71;94440.41;5012659;28;20216;-81
2023/02/25 01:34:13;;;;;;;10.60;6.73;;;;;;;3.66;90.86;94449.75;4999232;28;20683;-80
2023/02/25 01:36:38;;;;;;;8.40;6.47;;;;;;;3.51;91.40;94444.16;4988916;28;20194;-81
2023/02/25 01:39:04;;;;;;;12.23;7.07;;;;;;;3.51;90.26;94436.47;4998449;28;20191;-80
2023/02/25 01:41:31;;;;;;;13.23;7.07;;;;;;;3.48;90.91;94439.31;4995024;28;20601;-80
2023/02/25 01:44:14;;;;;;;11.23;6.73;;;;;;;3.58;90.60;94435.00;4995663;28;20588;-81
2023/02/25 01:46:42;;;;;;;8.43;6.10;;;;;;;3.60;90.91;94427.97;4996313;28;20306;-80
2023/02/25 01:49:22;;;;;;;12.47;6.80;;;;;;;3.57;91.11;94438.53;5012192;28;20242;-81
2023/02/25 01:51:49;;;;;;;13.00;7.80;;;;;;;3.50;91.10;94416.88;5003416;28;20196;-79
2023/02/25 01:54:15;;;;;;;11.30;6.80;;;;;;;3.56;91.07;94423.25;5004273;28;20204;-80
2023/02/25 01:56:44;;;;;;;11.43;6.73;;;;;;;3.45;91.51;94428.50;5008843;28;20626;-79
2023/02/25 01:59:10;;;;;;;12.13;7.57;;;;;;;3.57;91.80;94428.25;5013374;28;20189;-79
2023/02/25 02:01:37;;;;;;;12.20;7.60;;;;;;;3.39;92.24;94432.41;5018957;28;20287;-79
2023/02/25 02:04:04;;;;;;;10.50;7.10;;;;;;;3.50;92.38;94441.75;5004801;28;20245;-79
2023/02/25 02:06:38;;;;;;;11.53;6.73;;;;;;;3.47;91.91;94442.00;5010398;28;20261;-80
2023/02/25 02:09:06;;;;;;;11.40;7.00;;;;;;;3.57;92.57;94440.28;4992757;28;20226;-78
2023/02/25 02:11:32;;;;;;;14.27;6.83;;;;;;;3.51;92.65;94449.31;5013725;28;20217;-79
2023/02/25 02:13:58;;;;;;;14.37;7.57;;;;;;;3.51;92.88;94441.59;4997623;28;20221;-79
2023/02/25 02:16:41;;;;;;;9.73;5.97;;;;;;;3.24;89.47;94441.41;5012879;28;20194;-79
2023/02/25 02:19:29;;;;;;;11.73;5.37;;;;;;;3.30;88.34;94446.81;5007971;28;20187;-80
2023/02/25 02:22:14;;;;;;;8.43;5.40;;;;;;;3.38;88.44;94444.41;5015482;28;20246;-79
2023/02/25 02:24:58;;;;;;;7.97;5.20;;;;;;;3.44;88.04;94443.06;5009031;28;20690;-80
2023/02/25 02:27:38;;;;;;;10.40;5.30;;;;;;;3.26;87.82;94439.50;5008747;28;20187;-80
2023/02/25 02:30:22;;;;;;;9.70;5.50;;;;;;;3.40;87.94;94446.84;5004537;28;20206;-80
2023/02/25 02:32:56;;;;;;;9.83;4.37;;;;;;;3.38;87.94;94452.13;5014973;28;20234;-79
2023/02/25 02:35:28;;;;;;;8.60;5.40;;;;;;;3.49;88.39;94448.63;5007271;28;20667;-79
2023/02/25 02:38:20;;;;;;;9.50;5.40;;;;;;;3.53;88.78;94452.53;5026239;28;20190;-80
2023/02/25 02:41:03;;;;;;;10.67;5.50;;;;;;;3.51;89.47;94453.63;4998375;28;20196;-79
2023/02/25 02:43:42;;;;;;;10.77;5.23;;;;;;;3.54;89.85;94461.91;5008361;28;20625;-79
2023/02/25 02:46:21;;;;;;;10.90;5.43;;;;;;;3.55;89.43;94457.56;4985647;28;20186;-79
2023/02/25 02:49:06;;;;;;;9.27;5.13;;;;;;;3.58;89.73;94460.69;5010289;28;20216;-80
2023/02/25 02:51:38;;;;;;;8.93;4.77;;;;;;;3.56;89.10;94467.69;5003363;28;20188;-80
2023/02/25 02:54:05;;;;;;;9.10;5.27;;;;;;;3.43;88.22;94464.53;5003695;28;20272;-80
2023/02/25 02:56:33;;;;;;;8.37;4.80;;;;;;;3.43;87.52;94464.53;5010616;28;20848;-80
2023/02/25 02:59:04;;;;;;;10.27;5.27;;;;;;;3.39;87.37;94471.69;4980777;28;20690;-79
2023/02/25 03:01:33;;;;;;;8.03;4.37;;;;;;;3.41;86.66;94472.38;5006693;28;20191;-79
2023/02/25 03:04:02;;;;;;;9.23;5.10;;;;;;;3.47;87.00;94471.06;5007469;28;20257;-80
2023/02/25 03:06:41;;;;;;;7.67;4.43;;;;;;;3.39;86.79;94468.31;4984556;28;20188;-80
2023/02/25 03:09:13;;;;;;;5.67;4.47;;;;;;;3.36;86.86;94468.59;5003841;28;20205;-80
2023/02/25 03:11:38;;;;;;;8.63;5.10;;;;;;;3.35;87.45;94470.31;4990237;28;20187;-79
2023/02/25 03:14:04;;;;;;;7.90;4.80;;;;;;;3.28;87.01;94476.13;4995811;28;20214;-80
2023/02/25 03:16:39;;;;;;;8.80;4.83;;;;;;;3.22;86.81;94471.50;5001285;28;20197;-80
2023/02/25 03:19:10;;;;;;;9.30;4.53;;;;;;;3.24;87.82;94474.75;4987793;28;20278;-80
2023/02/25 03:21:41;;;;;;;7.23;5.07;;;;;;;3.28;87.95;94473.56;5005154;28;20266;-79
2023/02/25 03:24:08;;;;;;;8.43;5.30;;;;;;;3.36;87.85;94476.31;4996108;28;20211;-79
2023/02/25 03:26:33;;;;;;;8.97;4.87;;;;;;;3.13;86.68;94467.97;5000697;28;20270;-79
2023/02/25 03:28:59;;;;;;;8.03;4.37;;;;;;;3.24;86.90;94469.63;5006963;28;20207;-79
2023/02/25 03:31:28;;;;;;;7.07;3.77;;;;;;;3.16;83.13;94485.66;4997907;28;20558;-79
2023/02/25 03:33:58;;;;;;;6.50;3.43;;;;;;;3.20;83.77;94492.16;5009643;28;20586;-79
2023/02/25 03:36:31;;;;;;;5.37;3.00;;;;;;;3.15;81.91;94496.84;4994607;28;20658;-79
2023/02/25 03:39:07;;;;;;;3.50;2.33;;;;;;;3.01;81.16;94487.75;5010347;28;20180;-79
2023/02/25 03:41:36;;;;;;;3.37;2.23;;;;;;;3.06;80.19;94492.50;4999547;28;20268;-79
2023/02/25 03:44:05;;;;;;;5.70;2.43;;;;;;;2.92;78.18;94501.34;5001746;28;20218;-79
2023/02/25 03:46:32;;;;;;;5.00;2.10;;;;;;;2.93;78.16;94495.28;5007021;28;20191;-79
2023/02/25 03:48:58;;;;;;;6.40;2.63;;;;;;;2.91;77.12;94501.44;5012106;28;20199;-79
2023/02/25 03:51:30;;;;;;;3.47;1.87;;;;;;;2.87;77.92;94508.59;5008516;28;20187;-80
2023/02/25 03:53:56;;;;;;;4.03;1.73;;;;;;;2.78;77.62;94507.59;5003853;28;20212;-79
2023/02/25 03:56:22;;;;;;;4.00;2.00;;;;;;;2.89;77.39;94505.91;4996865;28;20196;-79
2023/02/25 03:58:47;;;;;;;5.97;2.20;;;;;;;2.81;77.92;94503.97;4981503;28;20192;-79
2023/02/25 04:01:20;;;;;;;5.67;1.90;;;;;;;2.91;77.95;94506.56;5005578;28;20192;-79
2023/02/25 04:03:45;;;;;;;4.00;2.00;;;;;;;2.84;77.01;94511.44;5008273;28;20207;-80
2023/02/25 04:06:11;;;;;;;4.67;2.03;;;;;;;2.79;77.44;94510.97;5011253;28;20564;-80
2023/02/25 04:08:36;;;;;;;7.70;1.97;;;;;;;2.80;78.18;94515.97;5007720;28;20237;-79
2023/02/25 04:11:02;;;;;;;4.83;1.80;;;;;;;2.71;77.21;94521.03;5001955;28;20192;-79
2023/02/25 04:13:27;;;;;;;3.97;1.83;;;;;;;2.72;77.88;94528.59;4996292;28;20253;-79
2023/02/25 04:15:52;;;;;;;4.77;2.00;;;;;;;2.84;78.16;94527.63;4979220;28;20191;-79
2023/02/25 04:18:17;;;;;;;5.13;2.13;;;;;;;2.73;78.92;94531.97;5001244;28;20610;-80
2023/02/25 04:20:43;;;;;;;5.07;2.00;;;;;;;2.76;79.17;94535.13;4990900;28;20195;-79
2023/02/25 04:23:15;;;;;;;5.43;2.80;;;;;;;2.69;78.91;94534.00;5009895;28;20195;-79
2023/02/25 04:25:41;;;;;;;6.37;2.40;;;;;;;2.79;79.18;94531.50;4991015;28;20223;-79
2023/02/25 04:28:06;;;;;;;6.80;2.30;;;;;;;2.75;78.71;94535.25;5006579;28;20207;-80
2023/02/25 04:30:31;;;;;;;5.40;2.13;;;;;;;2.77;78.98;94528.25;5012454;28;20205;-78
2023/02/25 04:32:56;;;;;;;5.67;2.23;;;;;;;2.78;79.33;94525.53;5007248;28;20609;-79
2023/02/25 04:35:22;;;;;;;4.50;2.40;;;;;;;2.80;80.21;94525.41;4985073;28;20215;-79
2023/02/25 04:37:47;;;;;;;4.80;2.20;;;;;;;2.82;80.10;94528.66;4991730;28;20196;-79
2023/02/25 04:40:18;;;;;;;5.00;2.13;;;;;;;2.83;80.16;94535.44;5012660;28;20544;-79
2023/02/25 04:42:44;;;;;;;5.17;2.00;;;;;;;2.72;78.69;94541.41;5012883;28;20199;-80
2023/02/25 04:45:10;;;;;;;4.23;2.07;;;;;;;2.68;78.76;94547.75;5004129;28;20557;-80
2023/02/25 04:47:36;;;;;;;5.70;1.77;;;;;;;2.61;77.75;94541.47;4983817;28;20219;-80
2023/02/25 04:50:01;;;;;;;3.17;1.93;;;;;;;2.71;78.35;94533.84;4984585;28;20219;-80
2023/02/25 04:52:27;;;;;;;5.57;1.83;;;;;;;2.72;79.01;94532.91;4990285;28;20192;-80
2023/02/25 04:54:52;;;;;;;3.20;1.90;;;;;;;2.68;78.14;94536.69;4999020;28;20583;-80
2023/02/25 04:57:17;;;;;;;6.77;2.37;;;;;;;2.64;77.68;94536.09;5015349;28;20679;-80
2023/02/25 04:59:43;;;;;;;5.70;2.33;;;;;;;2.62;77.42;94539.72;4995228;28;20206;-79
2023/02/25 05:02:08;;;;;;;7.03;2.00;;;;;;;2.72;78.00;94543.97;5005481;28;20190;-80
2023/02/25 05:04:38;;;;;;;3.63;2.03;;;;;;;2.63;78.03;94538.78;4985578;28;20203;-80
2023/02/25 05:07:04;;;;;;;9.00;2.93;;;;;;;2.69;77.92;94540.88;5013976;28;20693;-80
2023/02/25 05:09:29;;;;;;;9.43;4.37;;;;;;;2.70;77.38;94540.75;5015497;28;20218;-80
2023/02/25 05:11:55;;;;;;;10.47;5.87;;;;;;;2.69;76.77;94538.31;5012343;28;20188;-80
2023/02/25 05:14:20;;;;;;;56.37;27.37;;;;;;;2.62;75.39;94549.97;5014986;28;20222;-80
2023/02/25 05:16:46;;;;;;;47.00;18.43;;;;;;;2.59;75.88;94542.56;5008020;28;20686;-81
2023/02/25 05:19:21;;;;;;;39.87;18.57;;;;;;;2.60;75.26;94539.06;5005908;28;20250;-80
2023/02/25 05:21:46;;;;;;;13.47;7.17;;;;;;;2.49;73.50;94543.28;5011611;28;20202;-81
2023/02/25 05:24:12;;;;;;;12.83;4.57;;;;;;;2.58;74.35;94531.50;5012973;28;20344;-81
2023/02/25 05:26:37;;;;;;;6.47;3.60;;;;;;;2.58;73.86;94530.69;4989060;28;20242;-81
2023/02/25 05:29:03;;;;;;;23.83;13.27;;;;;;;2.56;73.57;94533.34;4989819;28;20208;-80
2023/02/25 05:31:28;;;;;;;13.60;7.50;;;;;;;2.70;74.28;94533.03;4997610;28;20666;-81
2023/02/25 05:33:55;;;;;;;9.20;5.27;;;;;;;2.69;74.08;94536.56;5003278;28;20199;-81
2023/02/25 05:36:20;;;;;;;15.67;6.60;;;;;;;2.70;73.85;94537.38;5004643;28;20199;-81
2023/02/25 05:38:46;;;;;;;12.03;5.03;;;;;;;2.67;73.79;94533.31;4987264;28;20186;-80
2023/02/25 05:41:13;;;;;;;5.60;2.97;;;;;;;2.55;74.50;94536.84;5000122;28;20227;-81
2023/02/25 05:43:38;;;;;;;4.27;2.13;;;;;;;2.37;74.26;94528.88;5003893;28;20203;-79
2023/02/25 05:46:07;;;;;;;5.27;1.60;;;;;;;2.41;73.52;94532.84;4979606;28;20247;-79
2023/02/25 05:48:33;;;;;;;3.00;1.40;;;;;;;2.47;74.47;94528.94;4988525;28;20203;-81
2023/02/25 05:51:03;;;;;;;5.73;1.50;;;;;;;2.45;74.14;94538.53;4981714;28;20564;-80
2023/02/25 05:53:29;;;;;;;4.17;1.50;;;;;;;2.32;74.70;94533.56;5001251;28;20191;-79
2023/02/25 05:55:54;;;;;;;4.03;1.57;;;;;;;2.19;75.44;94536.28;5003023;28;20191;-79
2023/02/25 05:58:20;;;;;;;5.33;1.60;;;;;;;2.21;75.35;94528.50;5001265;28;20246;-80
2023/02/25 06:00:46;;;;;;;4.30;1.47;;;;;;;2.29;75.66;94536.38;4989546;28;20191;-79
2023/02/25 06:03:11;;;;;;;3.50;1.50;;;;;;;2.28;74.75;94534.75;5017780;28;20195;-81
2023/02/25 06:05:40;;;;;;;4.73;1.57;;;;;;;2.41;75.09;94544.84;5010903;28;20268;-80
2023/02/25 06:08:06;;;;;;;2.57;1.20;;;;;;;2.29;74.85;94541.50;5005755;28;20208;-80
2023/02/25 06:10:37;;;;;;;4.17;1.60;;;;;;;2.45;75.42;94546.22;5004417;28;20187;-80
2023/02/25 06:13:06;;;;;;;4.10;1.47;;;;;;;2.43;74.51;94548.91;5012920;28;20183;-80
2023/02/25 06:15:31;;;;;;;4.00;1.40;;;;;;;2.50;74.93;94556.91;5009946;28;20219;-80
2023/02/25 06:17:57;;;;;;;2.23;1.13;;;;;;;2.42;74.81;94557.53;5005770;28;20194;-80
2023/02/25 06:20:24;;;;;;;4.77;1.43;;;;;;;2.40;75.00;94559.41;5002189;28;20505;-80
2023/02/25 06:22:49;;;;;;;4.07;1.50;;;;;;;2.44;74.15;94567.66;4996894;28;20567;-80
2023/02/25 06:25:15;;;;;;;2.97;1.33;;;;;;;2.29;74.26;94574.78;5001517;28;20203;-80
2023/02/25 06:27:40;;;;;;;3.93;1.70;;;;;;;2.43;74.15;94574.53;5003429;28;20274;-80
2023/02/25 06:30:06;;;;;;;3.67;1.47;;;;;;;2.39;73.75;94583.41;4988671;28;20199;-80
2023/02/25 06:32:31;;;;;;;4.97;1.60;;;;;;;2.35;73.96;94578.63;5024363;28;20191;-79
2023/02/25 06:34:56;;;;;;;3.50;1.60;;;;;;;2.46;74.19;94571.72;5017589;28;20237;-80
2023/02/25 06:37:22;;;;;;;3.63;1.50;;;;;;;2.46;74.01;94573.47;5017657;28;20187;-80
2023/02/25 06:39:47;;;;;;;3.07;1.33;;;;;;;2.46;74.02;94570.91;5022801;28;20231;-80
2023/02/25 06:42:12;;;;;;;4.57;1.30;;;;;;;2.45;73.40;94572.66;5029667;28;20182;-80
2023/02/25 06:44:38;;;;;;;5.93;2.07;;;;;;;2.28;72.22;94576.53;5012638;28;20550;-80
2023/02/25 06:47:03;;;;;;;4.67;1.60;;;;;;;2.21;71.13;94583.09;5008667;28;20202;-80
2023/02/25 06:49:29;;;;;;;3.10;1.40;;;;;;;2.40;71.55;94581.66;5008012;28;20199;-81
2023/02/25 06:51:54;;;;;;;6.00;1.50;;;;;;;2.57;72.04;94580.31;4987351;28;20195;-80
2023/02/25 06:54:19;;;;;;;3.83;1.20;;;;;;;2.49;70.70;94579.16;5002767;28;20238;-80
2023/02/25 06:56:45;;;;;;;3.03;1.33;;;;;;;2.54;69.26;94577.03;5000298;28;20195;-81
2023/02/25 06:59:10;;;;;;;5.70;1.10;;;;;;;2.55;69.06;94583.78;4994197;28;20191;-80
2023/02/25 07:01:36;;;;;;;4.73;1.60;;;;;;;2.61;68.74;94582.50;4994880;28;20195;-81
2023/02/25 07:04:02;;;;;;;5.47;2.20;;;;;;;2.76;68.49;94586.41;4993275;28;20258;-82
2023/02/25 07:06:27;;;;;;;5.50;2.83;;;;;;;2.88;68.15;94596.59;5022410;28;20178;-81
2023/02/25 07:08:52;;;;;;;6.27;2.40;;;;;;;2.74;67.75;94595.97;5016105;28;20704;-81
2023/02/25 07:11:18;;;;;;;7.90;2.23;;;;;;;2.97;67.75;94603.53;4997286;28;20202;-81
2023/02/25 07:13:45;;;;;;;6.03;2.40;;;;;;;3.07;69.02;94599.28;5006833;28;20212;-81
2023/02/25 07:16:12;;;;;;;6.87;1.70;;;;;;;3.14;68.13;94600.41;4989863;28;20782;-81
2023/02/25 07:18:38;;;;;;;5.40;1.60;;;;;;;2.78;67.11;94604.22;5012588;28;20183;-80
2023/02/25 07:21:04;;;;;;;3.43;1.27;;;;;;;2.80;68.36;94607.47;4991847;28;20698;-80
2023/02/25 07:23:29;;;;;;;4.77;1.50;;;;;;;2.86;67.45;94599.28;5003375;28;20187;-81
2023/02/25 07:25:54;;;;;;;3.67;1.80;;;;;;;2.97;66.55;94606.09;5002644;28;20573;-82
2023/02/25 07:28:19;;;;;;;4.37;1.67;;;;;;;3.07;66.85;94599.28;5004970;28;20293;-80
2023/02/25 07:30:45;;;;;;;5.57;1.70;;;;;;;3.05;66.73;94606.28;5012656;28;20183;-81
2023/02/25 07:33:10;;;;;;;2.60;1.50;;;;;;;3.18;66.14;94598.41;5010521;28;20198;-81
2023/02/25 07:35:35;;;;;;;2.83;1.50;;;;;;;3.17;65.37;94605.28;5002628;28;20254;-80
2023/02/25 07:38:01;;;;;;;7.97;2.50;;;;;;;3.23;66.15;94607.34;4984036;28;20202;-81
2023/02/25 07:40:26;;;;;;;4.47;2.77;;;;;;;3.07;66.07;94607.78;5000790;28;20180;-81
2023/02/25 07:42:51;;;;;;;4.90;2.43;;;;;;;3.19;65.75;94600.06;5006816;28;20204;-81
2023/02/25 07:45:17;;;;;;;5.57;2.10;;;;;;;2.94;67.02;94596.09;5009329;28;20206;-81
2023/02/25 07:47:42;;;;;;;4.90;1.77;;;;;;;3.12;67.24;94597.16;5015084;28;20204;-79
2023/02/25 07:50:08;;;;;;;3.47;1.80;;;;;;;3.09;68.21;94602.53;4986115;28;20259;-80
2023/02/25 07:52:35;;;;;;;6.07;1.77;;;;;;;3.16;67.22;94598.53;4988811;28;20229;-80
2023/02/25 07:55:01;;;;;;;4.57;1.63;;;;;;;3.08;66.63;94606.84;5009516;28;20221;-80
2023/02/25 07:57:27;;;;;;;7.63;1.80;;;;;;;3.16;67.91;94595.16;5010095;28;20189;-80
2023/02/25 07:59:52;;;;;;;5.03;1.70;;;;;;;3.53;67.80;94598.06;4994534;28;20187;-80
2023/02/25 08:02:18;;;;;;;4.30;1.83;;;;;;;3.68;66.46;94607.03;5000792;28;20565;-80
2023/02/25 08:04:43;;;;;;;6.20;2.17;;;;;;;3.71;66.53;94599.09;5008320;28;20215;-80
2023/02/25 08:07:08;;;;;;;4.00;1.63;;;;;;;3.68;65.73;94597.59;5000093;28;20191;-80
2023/02/25 08:09:34;;;;;;;2.93;1.80;;;;;;;3.76;65.51;94593.56;4988228;28;20222;-81
2023/02/25 08:12:00;;;;;;;4.83;2.00;;;;;;;3.82;65.44;94593.06;4983374;28;20194;-81
2023/02/25 08:14:25;;;;;;;3.33;1.63;;;;;;;3.77;64.93;94598.56;4981484;28;20205;-81
2023/02/25 08:16:55;;;;;;;3.67;1.90;;;;;;;3.94;64.47;94589.44;4987119;28;20274;-81
2023/02/25 08:19:23;;;;;;;3.60;1.83;;;;;;;4.00;64.52;94588.91;4986700;28;20188;-81
2023/02/25 08:21:49;;;;;;;6.37;1.90;;;;;;;4.16;64.17;94596.94;5017493;28;20189;-81
2023/02/25 08:24:14;;;;;;;3.10;1.60;;;;;;;3.83;62.96;94602.38;4999965;28;20203;-81
2023/02/25 08:26:40;;;;;;;3.87;1.83;;;;;;;3.75;61.67;94615.06;5008920;28;20193;-81
2023/02/25 08:29:06;;;;;;;4.60;1.80;;;;;;;4.07;61.78;94607.19;4995786;28;20306;-82
2023/02/25 08:31:31;;;;;;;3.47;1.50;;;;;;;4.03;61.24;94610.97;5026763;28;20232;-81
2023/02/25 08:33:58;;;;;;;9.77;2.17;;;;;;;4.37;61.62;94611.44;4987974;28;20703;-80
2023/02/25 08:36:26;;;;;;;2.73;1.47;;;;;;;4.45;60.13;94611.59;5017482;28;20202;-81
2023/02/25 08:38:52;;;;;;;2.13;1.57;;;;;;;4.51;60.66;94617.03;4995596;28;20265;-81
2023/02/25 08:41:22;;;;;;;5.50;1.90;;;;;;;4.58;60.86;94616.47;5001228;28;20237;-80
2023/02/25 08:43:50;;;;;;;4.77;1.60;;;;;;;4.70;59.15;94616.25;5005315;28;20225;-79
2023/02/25 08:46:15;;;;;;;4.30;1.57;;;;;;;4.50;56.65;94615.38;4990491;28;20301;-79
2023/02/25 08:48:40;;;;;;;5.63;1.50;;;;;;;4.35;53.89;94618.50;4984399;28;20207;-85
2023/02/25 08:51:07;;;;;;;5.07;1.60;;;;;;;4.57;57.68;94615.66;4989501;28;20184;-79
2023/02/25 08:53:35;;;;;;;6.23;1.70;;;;;;;4.57;58.37;94612.28;5006629;28;20224;-80
2023/02/25 08:56:07;;;;;;;4.30;1.57;;;;;;;4.87;58.09;94606.22;4975515;28;20195;-80
2023/02/25 08:58:33;;;;;;;3.27;1.80;;;;;;;4.45;56.80;94607.28;4991523;28;20188;-80
2023/02/25 09:00:58;;;;;;;6.00;1.90;;;;;;;4.78;57.72;94608.66;4982204;28;20179;-80
2023/02/25 09:03:24;;;;;;;5.80;2.30;;;;;;;4.72;55.38;94606.63;4977031;28;20195;-79
2023/02/25 09:05:54;;;;;;;3.17;2.10;;;;;;;4.69;55.86;94601.75;4980360;28;20193;-80
2023/02/25 09:08:19;;;;;;;3.10;1.30;;;;;;;4.84;54.38;94617.56;4993598;28;20270;-78
2023/02/25 09:10:45;;;;;;;2.10;1.40;;;;;;;5.09;55.27;94614.47;4983792;28;20648;-79
2023/02/25 09:13:11;;;;;;;4.33;0.93;;;;;;;4.82;55.29;94614.34;4997705;28;20206;-79
2023/02/25 09:15:36;;;;;;;4.53;1.50;;;;;;;4.82;55.46;94617.72;5003751;28;20212;-80
2023/02/25 09:18:01;;;;;;;2.97;1.00;;;;;;;5.10;54.95;94616.06;5002720;28;20237;-80
2023/02/25 09:20:26;;;;;;;6.23;1.53;;;;;;;4.94;54.50;94610.66;4995281;28;20188;-80
2023/02/25 09:22:53;;;;;;;5.63;1.30;;;;;;;5.09;55.68;94605.94;5002307;28;20186;-79
2023/02/25 09:25:18;;;;;;;2.33;1.13;;;;;;;4.82;54.21;94611.75;4999172;28;20238;-80
2023/02/25 09:27:44;;;;;;;3.60;1.50;;;;;;;5.01;56.21;94605.78;4988988;28;20184;-79
2023/02/25 09:30:09;;;;;;;6.43;1.70;;;;;;;4.60;55.49;94597.41;4996758;28;20191;-80
2023/02/25 09:32:35;;;;;;;3.83;1.10;;;;;;;4.94;55.87;94608.09;4994630;28;20195;-82
2023/02/25 09:35:01;;;;;;;2.13;1.30;;;;;;;4.88;55.13;94602.69;4989150;28;20215;-79
2023/02/25 09:37:26;;;;;;;3.13;1.40;;;;;;;4.99;56.16;94612.84;4981875;28;20212;-81
2023/02/25 09:39:52;;;;;;;4.13;1.93;;;;;;;4.90;56.03;94605.94;4981560;28;20192;-80
2023/02/25 09:42:27;;;;;;;4.50;2.43;;;;;;;4.79;57.47;94601.75;5000922;28;20187;-82
2023/02/25 09:44:55;;;;;;;5.00;1.63;;;;;;;4.49;57.47;94605.22;5023088;28;20702;-81
2023/02/25 09:47:32;;;;;;;2.37;1.37;;;;;;;4.92;57.06;94597.13;4995251;28;20549;-81
2023/02/25 09:50:13;;;;;;;3.20;1.60;;;;;;;5.12;56.83;94587.63;4978531;28;20717;-81
2023/02/25 09:52:45;;;;;;;4.47;2.00;;;;;;;5.05;56.54;94589.16;4987198;28;20188;-82
2023/02/25 09:55:19;;;;;;;2.37;1.83;;;;;;;4.88;56.98;94587.25;4981618;28;20325;-79
2023/02/25 09:57:53;;;;;;;4.47;1.83;;;;;;;5.33;55.25;94584.91;4984597;28;20184;-79
2023/02/25 10:00:19;;;;;;;5.57;1.50;;;;;;;5.12;55.31;94585.06;4973269;28;20619;-80
2023/02/25 10:03:03;;;;;;;3.77;1.60;;;;;;;5.36;55.77;94592.34;4985180;28;20897;-80
2023/02/25 10:06:06;;;;;;;3.93;1.97;;;;;;;5.48;56.42;94596.38;5007245;28;20210;-81
2023/02/25 10:09:09;;;;;;;3.33;1.50;;;;;;;5.35;55.52;94591.53;4978284;28;20223;-81
2023/02/25 10:11:42;;;;;;;6.40;2.30;;;;;;;5.48;55.88;94588.66;4978714;28;20208;-80
2023/02/25 10:14:41;;;;;;;4.43;2.17;;;;;;;5.46;55.18;94584.59;4976930;28;20220;-81
2023/02/25 10:17:26;;;;;;;4.87;1.80;;;;;;;5.06;55.47;94591.56;4983260;28;20207;-81
2023/02/25 10:20:30;;;;;;;2.17;1.77;;;;;;;5.40;55.61;94602.22;4997417;28;20189;-80
2023/02/25 10:23:06;;;;;;;7.37;3.00;;;;;;;5.65;55.00;94598.22;4991792;28;20195;-80
2023/02/25 10:25:36;;;;;;;4.33;1.50;;;;;;;5.56;53.17;94603.38;4968849;28;20210;-80
2023/02/25 10:28:06;;;;;;;3.10;1.17;;;;;;;5.05;54.88;94599.44;5003326;28;20210;-81
2023/02/25 10:30:56;;;;;;;2.80;1.00;;;;;;;5.25;53.57;94600.22;5001248;28;20260;-80
2023/02/25 10:33:23;;;;;;;4.87;1.50;;;;;;;5.19;53.68;94599.00;5010420;28;20195;-80
2023/02/25 10:35:54;;;;;;;4.43;2.53;;;;;;;5.06;53.24;94595.91;4987639;28;20235;-80
2023/02/25 10:38:19;;;;;;;35.57;15.97;;;;;;;5.30;54.53;94590.31;4984247;28;20679;-80
2023/02/25 10:40:44;;;;;;;4.33;1.57;;;;;;;5.25;52.77;94580.44;5000238;28;20196;-80
2023/02/25 10:43:19;;;;;;;5.33;1.43;;;;;;;5.54;52.45;94574.41;4987328;28;20225;-81
2023/02/25 10:45:44;;;;;;;2.70;1.20;;;;;;;5.54;53.57;94571.81;4996164;28;20206;-81
2023/02/25 10:48:19;;;;;;;3.60;1.50;;;;;;;5.63;52.71;94570.97;4980936;28;20683;-80
2023/02/25 10:51:02;;;;;;;2.40;1.33;;;;;;;5.63;52.20;94573.56;5005075;28;21154;-81
2023/02/25 10:53:27;;;;;;;3.50;1.50;;;;;;;5.75;52.18;94577.59;4980961;28;20234;-80
2023/02/25 10:55:53;;;;;;;5.10;1.40;;;;;;;5.59;53.05;94565.31;4981287;28;20192;-81
2023/02/25 10:58:21;;;;;;;5.20;1.23;;;;;;;5.62;51.91;94562.44;4987369;28;20191;-80
2023/02/25 11:00:55;;;;;;;2.80;1.10;;;;;;;5.10;53.39;94561.22;4991184;28;20180;-80
2023/02/25 11:03:29;;;;;;;1.20;1.00;;;;;;;4.84;53.42;94564.38;4996658;28;20199;-80
2023/02/25 11:06:11;;;;;;;3.20;1.57;;;;;;;4.98;52.14;94572.63;4995611;28;20179;-80
2023/02/25 11:08:37;;;;;;;2.53;1.37;;;;;;;4.92;52.97;94570.59;4979281;28;20219;-80
2023/02/25 11:11:05;;;;;;;1.83;1.13;;;;;;;5.17;52.82;94574.34;4984289;28;20189;-80
2023/02/25 11:13:34;;;;;;;2.77;1.30;;;;;;;4.69;53.57;94575.22;4995614;28;20196;-80
2023/02/25 11:16:05;;;;;;;10.07;2.50;;;;;;;5.00;54.57;94575.88;4991811;28;20187;-80
2023/02/25 11:18:31;;;;;;;6.37;1.37;;;;;;;4.73;53.85;94569.66;4986706;28;20176;-80
2023/02/25 11:21:02;;;;;;;4.70;1.27;;;;;;;4.94;55.10;94578.97;4981737;28;20188;-79
2023/02/25 11:23:43;;;;;;;1.37;1.10;;;;;;;4.83;55.33;94573.03;4994353;28;20529;-80
2023/02/25 11:26:14;;;;;;;2.87;1.00;;;;;;;4.80;54.50;94557.06;4981373;28;20186;-79
2023/02/25 11:28:43;;;;;;;3.97;1.07;;;;;;;4.88;55.48;94564.13;4982420;28;20215;-79
2023/02/25 11:31:22;;;;;;;5.50;1.17;;;;;;;4.80;55.79;94569.94;4980575;28;20219;-79
2023/02/25 11:33:59;;;;;;;3.13;1.30;;;;;;;4.88;56.60;94570.06;4988912;28;20938;-80
2023/02/25 11:36:30;;;;;;;3.67;1.37;;;;;;;4.79;56.25;94571.69;5007221;28;20655;-80
2023/02/25 11:39:22;;;;;;;4.63;1.67;;;;;;;4.77;56.50;94571.03;4996201;28;20219;-79
2023/02/25 11:41:50;;;;;;;2.93;1.40;;;;;;;4.60;56.75;94565.75;4990441;28;20188;-80
2023/02/25 11:44:18;;;;;;;3.17;1.20;;;;;;;4.58;57.89;94577.91;4984352;28;20722;-79
2023/02/25 11:46:49;;;;;;;3.07;1.27;;;;;;;4.58;57.02;94572.75;5011746;28;20191;-79